createdAt,value
2019-04-16T00:00:12.206Z,7.25
2019-04-16T00:02:55.157Z,7.04
2019-04-16T00:05:48.503Z,6.91
2019-04-16T00:08:28.203Z,6.76
2019-04-16T00:11:05.960Z,6.58
2019-04-16T00:14:03.402Z,6.46
2019-04-16T00:16:37.823Z,6.47
2019-04-16T00:19:09.508Z,6.52
2019-04-16T00:22:05.051Z,6.54
2019-04-16T00:24:39.551Z,6.49
2019-04-16T00:27:11.183Z,6.55
2019-04-16T00:29:43.500Z,6.55
2019-04-16T00:32:31.167Z,6.62
2019-04-16T00:35:04.069Z,6.55
2019-04-16T00:37:34.555Z,6.74
2019-04-16T00:40:07.130Z,6.79
2019-04-16T00:42:39.614Z,6.76
2019-04-16T00:45:12.638Z,6.69
2019-04-16T00:47:48.048Z,6.60
2019-04-16T00:50:18.655Z,6.59
2019-04-16T00:52:52.429Z,6.55
2019-04-16T00:55:23.236Z,6.42
2019-04-16T00:57:54.561Z,6.45
2019-04-16T01:00:30.613Z,6.38
2019-04-16T01:02:59.733Z,6.28
2019-04-16T01:05:35.055Z,6.37
2019-04-16T01:08:04.911Z,6.12
2019-04-16T01:10:35.747Z,5.94
2019-04-16T01:13:07.596Z,5.84
2019-04-16T01:15:42.733Z,5.73
2019-04-16T01:18:15.646Z,5.60
2019-04-16T01:20:48.706Z,5.48
2019-04-16T01:23:20.743Z,5.34
2019-04-16T01:25:55.586Z,5.17
2019-04-16T01:28:31.981Z,5.10
2019-04-16T01:31:22.071Z,5.00
2019-04-16T01:34:00.782Z,4.96
2019-04-16T01:36:45.709Z,4.94
2019-04-16T01:39:20.011Z,4.84
2019-04-16T01:41:53.499Z,4.71
2019-04-16T01:44:28.747Z,4.57
2019-04-16T01:46:58.114Z,4.47
2019-04-16T01:49:29.896Z,4.41
2019-04-16T01:52:00.905Z,4.38
2019-04-16T01:54:32.769Z,4.35
2019-04-16T01:57:05.973Z,4.41
2019-04-16T01:59:36.893Z,4.41
2019-04-16T02:02:07.950Z,4.40
2019-04-16T02:04:38.863Z,4.43
2019-04-16T02:07:12.015Z,4.31
2019-04-16T02:09:42.977Z,4.43
2019-04-16T02:12:15.009Z,4.44
2019-04-16T02:14:50.357Z,4.41
2019-04-16T02:17:26.724Z,4.32
2019-04-16T02:19:54.046Z,4.32
2019-04-16T02:22:27.062Z,4.22
2019-04-16T02:24:58.039Z,4.22
2019-04-16T02:27:31.136Z,4.19
2019-04-16T02:30:04.719Z,4.10
2019-04-16T02:32:35.067Z,4.03
2019-04-16T02:35:08.037Z,3.79
2019-04-16T02:37:41.431Z,3.79
2019-04-16T02:40:18.491Z,3.78
2019-04-16T02:42:47.145Z,3.76
2019-04-16T02:45:23.038Z,3.70
2019-04-16T02:47:52.202Z,3.58
2019-04-16T02:50:34.435Z,3.58
2019-04-16T02:53:37.970Z,3.50
2019-04-16T02:56:31.891Z,3.42
2019-04-16T02:59:11.892Z,3.22
2019-04-16T03:01:49.372Z,3.22
2019-04-16T03:04:26.657Z,3.21
2019-04-16T03:06:57.305Z,3.21
2019-04-16T03:09:30.461Z,3.25
2019-04-16T03:12:03.048Z,3.12
2019-04-16T03:14:36.348Z,3.12
2019-04-16T03:17:17.789Z,3.15
2019-04-16T03:19:51.282Z,3.15
2019-04-16T03:22:20.823Z,3.21
2019-04-16T03:24:52.349Z,3.13
2019-04-16T03:27:24.395Z,3.02
2019-04-16T03:30:02.985Z,2.98
2019-04-16T03:32:35.337Z,2.98
2019-04-16T03:35:05.668Z,2.79
2019-04-16T03:37:36.368Z,2.79
2019-04-16T03:40:16.590Z,2.83
2019-04-16T03:42:43.370Z,2.96
2019-04-16T03:45:15.916Z,3.18
2019-04-16T03:47:50.851Z,3.18
2019-04-16T03:50:21.073Z,3.13
2019-04-16T03:52:53.399Z,3.07
2019-04-16T03:55:26.261Z,3.03
2019-04-16T03:57:56.480Z,3.03
2019-04-16T04:00:28.439Z,2.96
2019-04-16T04:02:59.556Z,2.98
2019-04-16T04:05:35.106Z,2.83
2019-04-16T04:08:04.524Z,2.71
2019-04-16T04:10:37.115Z,2.71
2019-04-16T04:13:11.077Z,2.68
2019-04-16T04:15:42.646Z,2.73
2019-04-16T04:18:13.476Z,2.82
2019-04-16T04:20:49.663Z,2.97
2019-04-16T04:23:19.114Z,3.08
2019-04-16T04:25:51.559Z,3.11
2019-04-16T04:28:22.192Z,3.18
2019-04-16T04:30:57.735Z,3.11
2019-04-16T04:33:42.642Z,3.25
2019-04-16T04:36:12.863Z,3.33
2019-04-16T04:38:45.658Z,3.33
2019-04-16T04:41:46.329Z,3.42
2019-04-16T04:44:28.474Z,3.42
2019-04-16T04:47:00.266Z,3.42
2019-04-16T04:49:42.762Z,3.32
2019-04-16T04:52:15.231Z,3.32
2019-04-16T04:55:09.922Z,3.40
2019-04-16T04:57:42.790Z,3.40
2019-04-16T05:04:02.355Z,3.55
2019-04-16T05:06:50.574Z,3.69
2019-04-16T05:09:35.639Z,3.82
2019-04-16T05:12:08.080Z,3.82
2019-04-16T05:14:58.681Z,3.93
2019-04-16T05:20:24.145Z,4.23
2019-04-16T05:22:58.002Z,4.23
2019-04-16T05:25:34.469Z,4.31
2019-04-16T05:28:17.313Z,4.42
2019-04-16T05:31:07.180Z,4.50
2019-04-16T05:34:00.618Z,4.86
2019-04-16T05:36:34.454Z,4.93
2019-04-16T05:39:28.283Z,5.01
2019-04-16T05:42:02.003Z,5.09
2019-04-16T05:44:51.803Z,5.14
2019-04-16T05:47:41.618Z,5.23
2019-04-16T05:50:31.504Z,5.36
2019-04-16T05:53:02.105Z,5.51
2019-04-16T05:56:10.813Z,5.64
2019-04-16T05:59:02.713Z,5.70
2019-04-16T06:02:10.987Z,5.83
2019-04-16T06:05:00.806Z,5.95
2019-04-16T06:07:50.593Z,6.16
2019-04-16T06:10:40.486Z,6.29
2019-04-16T06:13:49.166Z,6.32
2019-04-16T06:16:38.416Z,6.38
2019-04-16T06:19:47.521Z,6.55
2019-04-16T06:23:00.656Z,6.56
2019-04-16T06:25:53.296Z,6.71
2019-04-16T06:29:01.983Z,6.81
2019-04-16T06:32:11.842Z,7.03
2019-04-16T06:35:07.668Z,7.12
2019-04-16T06:38:16.299Z,7.25
2019-04-16T06:41:25.001Z,7.43
2019-04-16T06:44:19.457Z,7.47
2019-04-16T06:47:28.404Z,7.58
2019-04-16T06:50:40.593Z,7.68
2019-04-16T06:53:39.006Z,7.75
2019-04-16T06:56:28.403Z,7.96
2019-04-16T06:59:37.374Z,8.21
2019-04-16T07:03:01.322Z,8.15
2019-04-16T07:05:42.855Z,8.34
2019-04-16T07:08:51.915Z,8.45
2019-04-16T07:11:57.784Z,8.63
2019-04-16T07:14:25.863Z,8.75
2019-04-16T07:17:08.675Z,8.92
2019-04-16T07:19:58.484Z,8.91
2019-04-16T07:22:52.741Z,8.97
2019-04-16T07:25:32.310Z,9.01
2019-04-16T07:28:33.532Z,9.18
2019-04-16T07:31:42.291Z,9.30
2019-04-16T07:34:45.173Z,9.53
2019-04-16T07:37:53.872Z,9.71
2019-04-16T07:41:02.566Z,9.67
2019-04-16T07:44:11.415Z,9.87
2019-04-16T07:47:20.792Z,10.04
2019-04-16T07:50:32.235Z,10.16
2019-04-16T07:53:31.429Z,10.22
2019-04-16T07:56:24.022Z,10.33
2019-04-16T07:59:13.812Z,10.41
2019-04-16T08:02:03.631Z,10.55
2019-04-16T08:04:53.625Z,10.73
2019-04-16T08:07:43.490Z,10.71
2019-04-16T08:10:33.347Z,10.86
2019-04-16T08:16:07.639Z,10.99
2019-04-16T08:18:57.452Z,11.16
2019-04-16T08:21:47.348Z,11.32
2019-04-16T08:27:23.880Z,11.35
2019-04-16T08:30:15.024Z,11.46
2019-04-16T08:33:04.810Z,11.64
2019-04-16T08:35:54.613Z,11.65
2019-04-16T08:38:26.116Z,11.66
2019-04-16T08:41:20.309Z,11.76
2019-04-16T08:44:02.930Z,11.85
2019-04-16T08:46:43.537Z,12.03
2019-04-16T08:49:33.379Z,12.09
2019-04-16T08:52:23.189Z,12.10
2019-04-16T08:55:13.017Z,12.21
2019-04-16T08:58:05.869Z,12.26
2019-04-16T09:03:30.963Z,12.52
2019-04-16T09:06:20.753Z,12.64
2019-04-16T09:09:29.456Z,12.57
2019-04-16T09:12:19.290Z,12.70
2019-04-16T09:18:32.069Z,13.74
2019-04-16T09:21:02.557Z,13.92
2019-04-16T09:24:11.338Z,13.72
2019-04-16T09:30:00.398Z,13.54
2019-04-16T09:33:09.116Z,13.55
2019-04-16T09:36:17.863Z,13.63
2019-04-16T09:39:25.472Z,13.57
2019-04-16T09:42:15.319Z,13.61
2019-04-16T09:45:05.812Z,13.87
2019-04-16T09:47:55.692Z,13.75
2019-04-16T09:50:47.886Z,13.73
2019-04-16T09:53:34.025Z,13.81
2019-04-16T09:56:30.781Z,13.99
2019-04-16T09:59:39.495Z,14.06
2019-04-16T10:05:30.152Z,14.21
2019-04-16T10:08:12.612Z,14.15
2019-04-16T10:10:58.090Z,14.40
2019-04-16T10:13:38.546Z,14.42
2019-04-16T10:19:13.112Z,14.58
2019-04-16T10:22:02.874Z,14.46
2019-04-16T10:25:11.582Z,14.60
2019-04-16T10:28:08.362Z,14.75
2019-04-16T10:30:58.335Z,14.83
2019-04-16T10:33:48.131Z,14.93
2019-04-16T10:36:18.585Z,15.05
2019-04-16T10:39:27.342Z,15.05
2019-04-16T10:42:25.587Z,15.09
2019-04-16T10:45:34.190Z,15.00
2019-04-16T10:48:23.483Z,15.04
2019-04-16T10:51:32.172Z,15.08
2019-04-16T10:54:38.135Z,15.27
2019-04-16T10:57:30.292Z,15.54
2019-04-16T11:03:41.149Z,15.56
2019-04-16T11:06:49.791Z,15.60
2019-04-16T11:09:39.898Z,15.61
2019-04-16T11:12:29.846Z,15.60
2019-04-16T11:15:22.117Z,15.79
2019-04-16T11:18:11.910Z,16.06
2019-04-16T11:21:01.711Z,16.36
2019-04-16T11:23:51.599Z,16.38
2019-04-16T11:26:22.067Z,16.54
2019-04-16T11:29:12.153Z,16.74
2019-04-16T11:31:54.810Z,16.56
2019-04-16T11:34:44.568Z,16.68
2019-04-16T11:37:36.211Z,16.85
2019-04-16T11:40:17.462Z,16.91
2019-04-16T11:43:07.328Z,17.08
2019-04-16T11:45:57.091Z,17.23
2019-04-16T11:48:50.068Z,17.37
2019-04-16T11:51:38.492Z,17.44
2019-04-16T11:54:28.443Z,17.56
2019-04-16T11:57:18.280Z,17.72
2019-04-16T12:02:58.586Z,17.72
2019-04-16T12:06:07.289Z,18.06
2019-04-16T12:09:16.117Z,18.27
2019-04-16T12:12:13.068Z,18.35
2019-04-16T12:15:21.734Z,18.43
2019-04-16T12:18:11.061Z,18.63
2019-04-16T12:21:19.730Z,18.75
2019-04-16T12:24:28.419Z,18.83
2019-04-16T12:27:37.065Z,18.94
2019-04-16T12:30:45.762Z,19.18
2019-04-16T12:33:54.496Z,19.08
2019-04-16T12:36:55.696Z,19.24
2019-04-16T12:40:04.424Z,19.55
2019-04-16T12:43:06.211Z,19.71
2019-04-16T12:46:14.921Z,20.09
2019-04-16T12:49:23.561Z,20.33
2019-04-16T12:52:32.209Z,20.42
2019-04-16T12:55:32.481Z,20.79
2019-04-16T12:58:34.435Z,20.82
2019-04-16T13:01:43.204Z,20.94
2019-04-16T13:04:51.904Z,21.26
2019-04-16T13:07:41.205Z,21.69
2019-04-16T13:10:41.161Z,22.03
2019-04-16T13:13:49.811Z,21.81
2019-04-16T13:16:58.479Z,22.03
2019-04-16T13:20:07.152Z,22.28
2019-04-16T13:22:58.290Z,22.84
2019-04-16T13:25:57.359Z,22.98
2019-04-16T13:28:47.229Z,22.62
2019-04-16T13:31:38.963Z,22.74
2019-04-16T13:34:20.429Z,22.63
2019-04-16T13:37:10.249Z,22.87
2019-04-16T13:42:48.170Z,22.94
2019-04-16T13:48:42.386Z,23.23
2019-04-16T13:51:24.175Z,23.29
2019-04-16T13:54:34.406Z,23.44
2019-04-16T13:57:14.288Z,23.22
2019-04-16T14:00:23.413Z,23.28
2019-04-16T14:03:15.685Z,23.47
2019-04-16T14:06:09.323Z,24.12
2019-04-16T14:08:48.373Z,24.05
2019-04-16T14:11:38.301Z,23.99
2019-04-16T14:14:28.095Z,24.61
2019-04-16T14:20:56.185Z,26.56
2019-04-16T14:23:48.753Z,27.68
2019-04-16T14:26:38.604Z,28.03
2019-04-16T14:29:28.384Z,28.39
2019-04-16T14:32:18.234Z,28.70
2019-04-16T14:35:07.623Z,29.25
2019-04-16T14:37:57.844Z,28.93
2019-04-16T14:40:35.088Z,29.64
2019-04-16T14:46:28.405Z,30.45
2019-04-16T14:49:09.502Z,30.88
2019-04-16T14:52:02.242Z,31.53
2019-04-16T14:55:09.723Z,31.89
2019-04-16T14:58:18.443Z,31.15
2019-04-16T15:01:07.696Z,31.53
2019-04-16T15:04:16.402Z,31.08
2019-04-16T15:06:58.150Z,30.97
2019-04-16T15:10:07.060Z,31.94
2019-04-16T15:13:15.708Z,31.35
2019-04-16T15:16:24.401Z,31.14
2019-04-16T15:19:33.075Z,30.91
2019-04-16T15:22:41.878Z,31.24
2019-04-16T15:25:44.150Z,31.39
2019-04-16T15:28:52.869Z,30.59
2019-04-16T15:32:05.432Z,31.71
2019-04-16T15:34:46.112Z,31.89
2019-04-16T15:37:44.912Z,32.25
2019-04-16T15:40:40.133Z,31.92
2019-04-16T15:43:23.332Z,31.66
2019-04-16T15:46:35.109Z,31.55
2019-04-16T15:49:29.011Z,30.48
2019-04-16T15:52:36.758Z,30.69
2019-04-16T15:55:33.131Z,31.29
2019-04-16T15:58:41.805Z,31.70
2019-04-16T16:01:50.505Z,31.55
2019-04-16T16:04:59.237Z,31.55
2019-04-16T16:08:08.030Z,30.78
2019-04-16T16:11:00.380Z,30.65
2019-04-16T16:13:50.274Z,30.44
2019-04-16T16:16:42.006Z,30.62
2019-04-16T16:19:23.264Z,30.99
2019-04-16T16:22:13.128Z,31.09
2019-04-16T16:25:05.873Z,30.76
2019-04-16T16:27:43.905Z,29.61
2019-04-16T16:30:24.035Z,29.65
2019-04-16T16:33:13.870Z,29.08
2019-04-16T16:35:57.071Z,28.99
2019-04-16T16:38:27.242Z,29.03
2019-04-16T16:41:17.035Z,29.19
2019-04-16T16:44:07.225Z,28.01
2019-04-16T16:47:15.956Z,28.04
2019-04-16T16:49:48.090Z,27.84
2019-04-16T16:52:56.769Z,27.49
2019-04-16T16:56:05.678Z,26.76
2019-04-16T16:59:14.301Z,26.53
2019-04-16T17:02:23.011Z,26.41
2019-04-16T17:08:01.700Z,25.37
2019-04-16T17:10:51.516Z,24.38
2019-04-16T17:13:41.344Z,24.03
2019-04-16T17:16:31.153Z,23.47
2019-04-16T17:19:20.983Z,22.24
2019-04-16T17:22:10.758Z,21.17
2019-04-16T17:25:00.633Z,20.23
2019-04-16T17:27:51.827Z,19.62
2019-04-16T17:30:33.389Z,18.96
2019-04-16T17:33:23.181Z,18.33
2019-04-16T17:36:13.110Z,17.66
2019-04-16T17:38:43.656Z,17.16
2019-04-16T17:41:37.542Z,16.80
2019-04-16T17:44:46.300Z,16.30
2019-04-16T17:47:57.223Z,15.88
2019-04-16T17:50:51.749Z,15.47
2019-04-16T17:53:41.329Z,15.21
2019-04-16T17:56:51.947Z,14.90
2019-04-16T18:02:35.243Z,14.38
2019-04-16T18:05:44.063Z,14.19
2019-04-16T18:08:52.735Z,14.12
2019-04-16T18:11:44.789Z,13.87
2019-04-16T18:14:40.763Z,13.61
2019-04-16T18:17:49.462Z,13.49
2019-04-16T18:20:56.822Z,13.23
2019-04-16T18:23:45.613Z,12.95
2019-04-16T18:26:55.160Z,12.72
2019-04-16T18:30:06.202Z,12.61
2019-04-16T18:33:05.577Z,12.53
2019-04-16T18:36:01.034Z,12.36
2019-04-16T18:41:47.168Z,12.10
2019-04-16T18:44:56.322Z,11.96
2019-04-16T18:47:42.905Z,11.85
2019-04-16T18:50:32.723Z,11.78
2019-04-16T18:53:22.574Z,11.65
2019-04-16T18:56:12.513Z,11.58
2019-04-16T18:58:42.934Z,11.58
2019-04-16T19:04:16.528Z,11.45
2019-04-16T19:06:47.165Z,11.45
2019-04-16T19:09:37.061Z,11.50
2019-04-16T19:12:26.963Z,11.46
2019-04-16T19:15:16.809Z,11.46
2019-04-16T19:18:18.950Z,11.41
2019-04-16T19:20:51.825Z,11.38
2019-04-16T19:23:33.615Z,11.52
2019-04-16T19:26:23.455Z,11.73
2019-04-16T19:29:14.549Z,11.65
2019-04-16T19:31:54.959Z,11.69
2019-04-16T19:34:34.502Z,11.62
2019-04-16T19:37:24.305Z,11.48
2019-04-16T19:40:15.598Z,11.60
2019-04-16T19:43:02.605Z,11.63
2019-04-16T19:45:35.392Z,11.66
2019-04-16T19:48:35.321Z,11.62
2019-04-16T19:51:19.608Z,11.43
2019-04-16T19:54:00.249Z,11.25
2019-04-16T19:56:51.392Z,11.26
2019-04-16T19:59:33.313Z,11.23
2019-04-16T20:02:23.143Z,11.17
2019-04-16T20:04:54.147Z,11.03
2019-04-16T20:07:37.202Z,10.89
2019-04-16T20:10:27.013Z,10.95
2019-04-16T20:13:16.861Z,10.79
2019-04-16T20:15:47.358Z,10.59
2019-04-16T20:18:50.164Z,10.62
2019-04-16T20:21:20.147Z,10.49
2019-04-16T20:23:56.281Z,10.74
2019-04-16T20:26:46.092Z,10.71
2019-04-16T20:29:35.999Z,10.71
2019-04-16T20:35:11.704Z,10.56
2019-04-16T20:38:01.546Z,10.44
2019-04-16T20:40:51.364Z,10.53
2019-04-16T20:43:41.200Z,10.76
2019-04-16T20:46:31.040Z,10.68
2019-04-16T20:49:20.902Z,10.62
2019-04-16T20:52:10.811Z,10.61
2019-04-16T20:57:27.725Z,10.33
2019-04-16T21:03:04.781Z,10.14
2019-04-16T21:05:57.805Z,10.02
2019-04-16T21:08:49.470Z,9.97
2019-04-16T21:11:41.017Z,10.08
2019-04-16T21:17:13.798Z,10.09
2019-04-16T21:20:04.041Z,10.09
2019-04-16T21:22:57.628Z,10.04
2019-04-16T21:25:37.495Z,10.10
2019-04-16T21:28:31.947Z,10.02
2019-04-16T21:31:21.557Z,10.08
2019-04-16T21:34:30.234Z,10.16
2019-04-16T21:40:25.985Z,9.96
2019-04-16T21:43:27.852Z,9.96
2019-04-16T21:45:59.115Z,10.02
2019-04-16T21:48:50.661Z,10.02
2019-04-16T21:52:01.608Z,9.90
2019-04-16T21:54:51.409Z,9.90
2019-04-16T21:57:42.876Z,9.68
2019-04-16T22:00:51.614Z,9.64
2019-04-16T22:03:42.916Z,9.81
2019-04-16T22:09:25.403Z,9.84
2019-04-16T22:12:16.188Z,9.71
2019-04-16T22:14:58.643Z,9.82
2019-04-16T22:17:48.435Z,9.81
2019-04-16T22:20:38.260Z,9.73
2019-04-16T22:23:28.619Z,9.49
2019-04-16T22:26:18.498Z,9.54
2019-04-16T22:29:08.270Z,9.54
2019-04-16T22:32:11.169Z,9.47
2019-04-16T22:34:40.448Z,9.42
2019-04-16T22:37:30.277Z,9.42
2019-04-16T22:40:38.902Z,9.58
2019-04-16T22:43:47.603Z,9.41
2019-04-16T22:46:40.452Z,9.31
2019-04-16T22:49:40.948Z,9.42
2019-04-16T22:53:02.714Z,9.49
2019-04-16T22:55:56.387Z,9.44
2019-04-16T22:58:48.928Z,9.57
2019-04-16T23:07:44.563Z,9.39
2019-04-16T23:10:17.832Z,9.39
2019-04-16T23:13:00.366Z,9.32
2019-04-16T23:15:32.650Z,9.36
2019-04-16T23:18:22.458Z,9.39
2019-04-16T23:21:12.224Z,9.28
2019-04-16T23:24:02.050Z,9.23
2019-04-16T23:26:33.292Z,9.30
2019-04-16T23:29:12.543Z,9.33
2019-04-16T23:31:56.028Z,9.23
2019-04-16T23:34:37.996Z,9.18
2019-04-16T23:37:14.989Z,9.36
2019-04-16T23:40:07.472Z,9.36
2019-04-16T23:43:15.377Z,9.35
2019-04-16T23:46:24.094Z,9.27
2019-04-16T23:49:32.792Z,8.99
2019-04-16T23:52:26.742Z,8.93
2019-04-16T23:55:35.422Z,9.09
2019-04-16T23:58:44.088Z,9.04
